Time;durP1;ratioP1;P1;durP2;ratioP2;P2;SDS_P1;SDS_P2;PMS_P1;PMS_P2;Temp;Humidity;BMP_temperature;BMP_pressure;BME280_temperature;BME280_humidity;BME280_pressure;Samples;Min_cycle;Max_cycle;Signal;HPM_P1;HPM_P2
2021/07/13 00:00:40;;;;;;;9.40;7.55;;;20.60;93.50;;;;;;4970906;28;20498;-89
2021/07/13 00:03:09;;;;;;;13.45;9.07;;;20.60;93.60;;;;;;4927492;29;20125;-91
2021/07/13 00:05:35;;;;;;;9.48;7.63;;;20.60;93.50;;;;;;4969988;28;20034;-89
2021/07/13 00:08:01;;;;;;;11.20;8.80;;;20.60;93.30;;;;;;4953743;29;20020;-89
2021/07/13 00:10:28;;;;;;;10.65;9.07;;;20.60;93.20;;;;;;4970099;28;20050;-89
2021/07/13 00:12:54;;;;;;;10.45;8.77;;;20.60;93.10;;;;;;4953885;29;20023;-89
2021/07/13 00:15:23;;;;;;;11.48;10.27;;;20.60;92.90;;;;;;4953810;29;20030;-89
2021/07/13 00:17:50;;;;;;;11.70;9.60;;;20.50;93.40;;;;;;4945899;28;20059;-88
2021/07/13 00:20:15;;;;;;;12.13;9.27;;;20.50;93.90;;;;;;4957452;28;20052;-88
2021/07/13 00:22:41;;;;;;;9.88;8.65;;;20.50;93.90;;;;;;4940671;28;20452;-89
2021/07/13 00:25:07;;;;;;;11.35;9.38;;;20.50;93.70;;;;;;4940495;28;20022;-89
2021/07/13 00:27:33;;;;;;;13.27;9.88;;;20.50;93.80;;;;;;4940316;28;20022;-88
2021/07/13 00:29:58;;;;;;;14.15;9.48;;;20.60;94.30;;;;;;4956748;28;20126;-89
2021/07/13 00:32:24;;;;;;;16.45;10.48;;;20.50;93.60;;;;;;4940683;28;20054;-88
2021/07/13 00:34:50;;;;;;;18.77;9.73;;;20.50;94.20;;;;;;4940712;28;20053;-89
2021/07/13 00:37:15;;;;;;;15.25;9.65;;;20.50;93.90;;;;;;4940702;28;20039;-89
2021/07/13 00:39:41;;;;;;;12.70;10.50;;;20.50;94.40;;;;;;4940700;28;20470;-89
2021/07/13 00:42:13;;;;;;;11.68;9.90;;;20.50;93.60;;;;;;4940647;28;20037;-90
2021/07/13 00:44:41;;;;;;;10.48;9.38;;;20.50;93.80;;;;;;4940568;28;20054;-89
2021/07/13 00:47:06;;;;;;;12.20;8.98;;;20.50;93.70;;;;;;4921246;29;20034;-89
2021/07/13 00:49:38;;;;;;;13.95;10.23;;;20.50;93.70;;;;;;4951010;29;20035;-90
2021/07/13 00:52:07;;;;;;;11.68;10.48;;;20.50;94.20;;;;;;4937545;29;20034;-88
2021/07/13 00:54:44;;;;;;;14.32;11.10;;;20.50;94.40;;;;;;4937544;29;20483;-89
2021/07/13 00:57:10;;;;;;;16.88;10.15;;;20.50;94.60;;;;;;4937324;28;20035;-90
2021/07/13 00:59:36;;;;;;;13.15;11.55;;;20.50;94.30;;;;;;4935589;29;20031;-89
2021/07/13 01:02:02;;;;;;;14.45;11.90;;;20.40;94.40;;;;;;4955849;28;20045;-89
2021/07/13 01:04:28;;;;;;;14.95;12.63;;;20.40;95.00;;;;;;4940518;28;20122;-88
2021/07/13 01:07:08;;;;;;;15.95;12.23;;;20.30;95.30;;;;;;4940423;28;20109;-90
2021/07/13 01:09:39;;;;;;;17.70;14.20;;;20.30;95.80;;;;;;4941001;28;20027;-90
2021/07/13 01:12:51;;;;;;;18.42;14.38;;;20.30;96.00;;;;;;4972344;28;20026;-89
2021/07/13 01:15:19;;;;;;;15.73;13.43;;;20.20;96.30;;;;;;4957110;28;20069;-91
2021/07/13 01:18:24;;;;;;;18.52;15.18;;;20.10;96.40;;;;;;4940395;28;20027;-89
2021/07/13 01:21:03;;;;;;;23.67;15.82;;;20.10;96.70;;;;;;4957853;28;20671;-90
2021/07/13 01:24:01;;;;;;;20.30;16.05;;;20.10;96.90;;;;;;4955961;28;20023;-90
2021/07/13 01:26:49;;;;;;;19.95;17.05;;;20.00;97.20;;;;;;4922693;28;20418;-91
2021/07/13 01:29:16;;;;;;;23.35;17.88;;;20.00;98.00;;;;;;4936921;29;20031;-88
2021/07/13 01:31:43;;;;;;;24.70;18.42;;;20.00;98.00;;;;;;4949622;28;20063;-89
2021/07/13 01:34:19;;;;;;;22.30;19.55;;;19.90;97.90;;;;;;4935868;29;20035;-90
2021/07/13 01:36:50;;;;;;;25.33;20.75;;;19.90;98.10;;;;;;4936558;29;20383;-91
2021/07/13 01:39:16;;;;;;;27.25;24.02;;;19.80;98.20;;;;;;4936774;29;20023;-90
2021/07/13 01:41:42;;;;;;;32.42;25.13;;;19.90;98.40;;;;;;4936402;29;20546;-90
2021/07/13 01:44:09;;;;;;;39.17;25.52;;;19.90;98.50;;;;;;4935338;29;20027;-90
2021/07/13 01:46:34;;;;;;;37.15;26.92;;;19.90;98.80;;;;;;4934364;29;20027;-89
2021/07/13 01:49:00;;;;;;;33.30;26.63;;;19.80;99.10;;;;;;4932593;29;20030;-88
2021/07/13 01:51:25;;;;;;;50.38;34.47;;;19.80;99.10;;;;;;4949769;28;20038;-87
2021/07/13 01:53:51;;;;;;;42.95;28.85;;;19.80;99.10;;;;;;4932621;29;20023;-87
2021/07/13 01:56:17;;;;;;;42.33;32.50;;;19.70;99.10;;;;;;4933377;29;20727;-88
2021/07/13 01:58:43;;;;;;;42.38;31.85;;;19.70;99.00;;;;;;4934344;28;20058;-87
2021/07/13 02:01:11;;;;;;;43.75;32.00;;;19.70;99.00;;;;;;4950649;28;20390;-87
2021/07/13 02:03:37;;;;;;;53.63;35.05;;;19.70;99.10;;;;;;4935668;28;20038;-87
2021/07/13 02:06:02;;;;;;;51.22;34.28;;;19.70;99.10;;;;;;4951380;28;20030;-87
2021/07/13 02:08:28;;;;;;;68.68;39.08;;;19.70;99.10;;;;;;4931754;28;20371;-88
2021/07/13 02:10:53;;;;;;;62.63;41.03;;;19.70;99.20;;;;;;4932383;29;20446;-86
2021/07/13 02:13:19;;;;;;;68.53;44.17;;;19.60;99.30;;;;;;4954064;28;20035;-87
2021/07/13 02:15:45;;;;;;;101.70;54.50;;;19.70;99.50;;;;;;4933544;29;20027;-88
2021/07/13 02:18:10;;;;;;;75.60;48.03;;;19.60;99.70;;;;;;4956612;28;20031;-87
2021/07/13 02:20:36;;;;;;;109.43;57.42;;;19.60;99.70;;;;;;4935144;28;20062;-87
2021/07/13 02:23:02;;;;;;;99.40;56.33;;;19.60;99.70;;;;;;4935078;28;20613;-87
2021/07/13 02:25:27;;;;;;;126.18;64.15;;;19.60;99.80;;;;;;4934985;28;20616;-86
2021/07/13 02:28:29;;;;;;;102.00;57.45;;;19.60;99.80;;;;;;4934660;28;20023;-87
2021/07/13 02:31:02;;;;;;;133.13;62.00;;;19.60;99.80;;;;;;4968805;28;20115;-87
2021/07/13 02:33:28;;;;;;;111.18;58.00;;;19.60;99.90;;;;;;4932759;29;20031;-87
2021/07/13 02:35:55;;;;;;;172.13;72.15;;;19.60;99.90;;;;;;4947943;29;20031;-86
2021/07/13 02:38:21;;;;;;;126.43;60.53;;;19.50;99.90;;;;;;4947422;29;20118;-87
2021/07/13 02:40:48;;;;;;;128.52;64.72;;;19.50;99.90;;;;;;4964019;28;20431;-86
2021/07/13 02:43:13;;;;;;;127.00;64.00;;;19.50;99.90;;;;;;4947329;29;20050;-87
2021/07/13 02:45:40;;;;;;;169.00;74.55;;;19.40;99.90;;;;;;4934085;29;20039;-87
2021/07/13 02:48:06;;;;;;;209.75;80.90;;;19.40;99.90;;;;;;4947151;28;20094;-87
2021/07/13 02:50:31;;;;;;;381.95;103.07;;;19.30;99.90;;;;;;4951317;23;20071;-86
2021/07/13 02:52:57;;;;;;;204.02;80.80;;;19.30;99.90;;;;;;4954204;28;20034;-86
2021/07/13 02:55:22;;;;;;;217.57;81.05;;;19.30;99.90;;;;;;4942740;29;20082;-87
2021/07/13 02:57:50;;;;;;;315.52;98.50;;;19.30;99.90;;;;;;4934736;29;20438;-87
2021/07/13 03:00:16;;;;;;;242.50;89.93;;;19.20;99.90;;;;;;4932035;29;20035;-87
2021/07/13 03:02:44;;;;;;;286.10;94.30;;;19.30;99.90;;;;;;4932018;29;20105;-86
2021/07/13 03:05:13;;;;;;;191.02;77.47;;;19.30;99.90;;;;;;4932008;29;20031;-86
2021/07/13 03:07:39;;;;;;;255.25;87.25;;;19.20;99.90;;;;;;4928326;29;20115;-87
2021/07/13 03:10:05;;;;;;;289.92;93.07;;;19.20;99.90;;;;;;4913117;29;20175;-88
2021/07/13 03:12:30;;;;;;;343.52;104.72;;;19.20;99.90;;;;;;4926015;29;20082;-86
2021/07/13 03:14:57;;;;;;;165.02;71.18;;;19.20;99.90;;;;;;4932030;29;20070;-87
2021/07/13 03:17:22;;;;;;;332.58;93.85;;;19.10;99.90;;;;;;4932006;29;20038;-88
2021/07/13 03:19:48;;;;;;;331.08;92.82;;;19.10;99.90;;;;;;4934685;29;20032;-87
2021/07/13 03:22:24;;;;;;;287.80;88.60;;;19.10;99.90;;;;;;4948318;29;20028;-87
2021/07/13 03:24:50;;;;;;;329.17;89.57;;;19.00;99.90;;;;;;4931258;29;20130;-87
2021/07/13 03:27:16;;;;;;;342.70;91.68;;;18.90;99.90;;;;;;4900223;29;20131;-87
2021/07/13 03:29:42;;;;;;;337.25;95.93;;;18.90;99.90;;;;;;4900481;29;20103;-86
2021/07/13 03:32:07;;;;;;;340.35;95.30;;;18.80;99.90;;;;;;4916464;29;20035;-86
2021/07/13 03:34:33;;;;;;;377.52;96.43;;;18.80;99.90;;;;;;4900552;29;20023;-87
2021/07/13 03:36:58;;;;;;;395.08;104.05;;;18.80;99.90;;;;;;4929911;29;20079;-88
2021/07/13 03:39:25;;;;;;;534.28;121.05;;;18.80;99.90;;;;;;4928516;29;20546;-86
2021/07/13 03:41:51;;;;;;;364.88;103.00;;;18.80;99.90;;;;;;4912378;29;20032;-87
2021/07/13 03:44:17;;;;;;;348.25;105.45;;;18.80;99.90;;;;;;4912811;29;20043;-87
2021/07/13 03:46:42;;;;;;;353.55;101.97;;;18.80;99.90;;;;;;4924540;29;20138;-86
2021/07/13 03:49:08;;;;;;;435.40;105.35;;;18.80;99.90;;;;;;4911758;29;20028;-87
2021/07/13 03:51:43;;;;;;;261.50;89.18;;;18.80;99.90;;;;;;4916534;29;20036;-87
2021/07/13 03:54:09;;;;;;;322.55;91.95;;;18.80;99.90;;;;;;4915095;29;20099;-86
2021/07/13 03:56:35;;;;;;;342.17;97.50;;;18.70;99.90;;;;;;4930165;29;20057;-86
2021/07/13 03:59:00;;;;;;;382.65;99.03;;;18.70;99.90;;;;;;4898730;29;20792;-86
2021/07/13 04:01:26;;;;;;;454.50;111.43;;;18.70;99.90;;;;;;4929733;29;20413;-87
2021/07/13 04:03:51;;;;;;;349.23;101.20;;;18.70;99.90;;;;;;4915781;29;20028;-86
2021/07/13 04:06:17;;;;;;;296.42;92.95;;;18.70;99.90;;;;;;4914634;29;20044;-87
2021/07/13 04:08:43;;;;;;;419.83;104.70;;;18.70;99.90;;;;;;4930809;29;20028;-87
2021/07/13 04:11:08;;;;;;;386.00;99.20;;;18.70;99.90;;;;;;4930498;29;20032;-87
2021/07/13 04:13:34;;;;;;;343.77;96.70;;;18.60;99.90;;;;;;4915080;29;20032;-87
2021/07/13 04:15:59;;;;;;;302.77;92.03;;;18.60;99.90;;;;;;4914822;29;20118;-86
2021/07/13 04:18:26;;;;;;;308.02;92.28;;;18.70;99.90;;;;;;4927200;29;20071;-87
2021/07/13 04:20:51;;;;;;;335.52;96.95;;;18.70;99.90;;;;;;4927368;29;20032;-87
2021/07/13 04:23:17;;;;;;;308.50;91.32;;;18.70;99.90;;;;;;4927518;29;20043;-87
2021/07/13 04:25:43;;;;;;;320.08;93.82;;;18.70;99.90;;;;;;4939237;29;20027;-87
2021/07/13 04:28:09;;;;;;;332.10;91.63;;;18.70;99.90;;;;;;4926963;29;20032;-87
2021/07/13 04:30:34;;;;;;;334.50;93.47;;;18.70;99.90;;;;;;4912497;29;20189;-87
2021/07/13 04:33:00;;;;;;;383.55;96.88;;;18.60;99.90;;;;;;4914612;29;20373;-86
2021/07/13 04:35:25;;;;;;;204.70;76.13;;;18.70;99.90;;;;;;4930502;29;20031;-87
2021/07/13 04:37:51;;;;;;;235.40;78.65;;;18.70;99.90;;;;;;4929843;29;20395;-86
2021/07/13 04:40:17;;;;;;;209.32;72.38;;;18.70;99.90;;;;;;4930389;29;20032;-86
2021/07/13 04:42:42;;;;;;;201.60;67.75;;;18.70;99.90;;;;;;4927192;29;20103;-86
2021/07/13 04:45:08;;;;;;;288.60;82.60;;;18.70;99.90;;;;;;4911144;29;20032;-87
2021/07/13 04:47:34;;;;;;;282.63;77.80;;;18.60;99.90;;;;;;4923351;29;20047;-87
2021/07/13 04:49:59;;;;;;;162.65;63.20;;;18.70;99.90;;;;;;4914254;29;20103;-87
2021/07/13 04:52:25;;;;;;;166.23;61.38;;;18.70;99.90;;;;;;4914365;29;20036;-87
2021/07/13 04:54:50;;;;;;;238.48;61.10;;;18.60;99.90;;;;;;4929485;29;20023;-87
2021/07/13 04:57:16;;;;;;;418.02;81.40;;;18.70;99.90;;;;;;4927799;29;20486;-86
2021/07/13 04:59:41;;;;;;;200.73;66.68;;;18.60;99.90;;;;;;4943740;29;20098;-84
2021/07/13 05:02:07;;;;;;;276.05;71.95;;;18.60;99.90;;;;;;4927086;29;20070;-85
2021/07/13 05:04:32;;;;;;;236.80;63.88;;;18.60;99.90;;;;;;4926147;29;20095;-84
2021/07/13 05:06:58;;;;;;;162.23;58.50;;;18.50;99.90;;;;;;4942249;29;20118;-84
2021/07/13 05:09:24;;;;;;;180.10;55.22;;;18.50;99.90;;;;;;4941359;29;20035;-85
2021/07/13 05:11:50;;;;;;;159.68;55.22;;;18.50;99.90;;;;;;4927753;29;20027;-86
2021/07/13 05:14:15;;;;;;;236.90;59.67;;;18.50;99.90;;;;;;4928236;29;20035;-85
2021/07/13 05:16:41;;;;;;;106.30;45.90;;;18.50;99.90;;;;;;4943558;29;20577;-87
2021/07/13 05:19:09;;;;;;;222.40;57.78;;;18.40;99.90;;;;;;4928152;29;20072;-87
2021/07/13 05:21:34;;;;;;;136.43;50.38;;;18.40;99.90;;;;;;4945161;29;20023;-87
2021/07/13 05:24:00;;;;;;;173.48;48.58;;;18.40;99.90;;;;;;4945745;29;20039;-86
2021/07/13 05:26:25;;;;;;;238.35;64.55;;;18.40;99.90;;;;;;4929304;29;20126;-87
2021/07/13 05:28:51;;;;;;;210.05;58.30;;;18.40;99.90;;;;;;4929242;29;20030;-87
2021/07/13 05:31:16;;;;;;;187.90;57.72;;;18.30;99.90;;;;;;4945989;29;20079;-86
2021/07/13 05:33:42;;;;;;;188.30;59.65;;;18.30;99.90;;;;;;4930095;29;20055;-87
2021/07/13 05:36:08;;;;;;;232.93;66.38;;;18.40;99.90;;;;;;4946371;29;20407;-87
2021/07/13 05:38:33;;;;;;;162.38;53.60;;;18.30;99.90;;;;;;4929287;29;20038;-87
2021/07/13 05:40:59;;;;;;;210.77;60.30;;;18.30;99.90;;;;;;4928907;29;20027;-87
2021/07/13 05:43:24;;;;;;;215.60;66.55;;;18.30;99.90;;;;;;4929410;29;20024;-87
2021/07/13 05:45:50;;;;;;;240.05;68.07;;;18.30;99.90;;;;;;4929110;29;20118;-88
2021/07/13 05:48:15;;;;;;;263.80;74.57;;;18.20;99.90;;;;;;4928708;29;20491;-88
2021/07/13 05:50:41;;;;;;;221.25;65.60;;;18.20;99.90;;;;;;4945808;29;20044;-88
2021/07/13 05:53:06;;;;;;;208.45;62.50;;;18.20;99.90;;;;;;4932645;29;20116;-86
2021/07/13 05:55:32;;;;;;;191.60;56.75;;;18.20;99.90;;;;;;4929104;29;20024;-87
2021/07/13 05:57:57;;;;;;;200.98;58.83;;;18.30;99.90;;;;;;4946523;29;20023;-87
2021/07/13 06:00:23;;;;;;;86.43;38.35;;;18.20;99.90;;;;;;4930602;29;20115;-87
2021/07/13 06:02:48;;;;;;;156.98;47.97;;;18.20;99.90;;;;;;4929629;29;20819;-88
2021/07/13 06:05:14;;;;;;;120.32;47.72;;;18.20;99.90;;;;;;4931372;29;20031;-89
2021/07/13 06:07:49;;;;;;;174.77;52.08;;;18.20;99.90;;;;;;4930540;29;20084;-87
2021/07/13 06:10:15;;;;;;;102.10;38.30;;;18.20;99.90;;;;;;4931114;29;20388;-89
2021/07/13 06:12:41;;;;;;;110.60;43.13;;;18.20;99.90;;;;;;4945462;29;20024;-88
2021/07/13 06:15:07;;;;;;;132.60;42.63;;;18.20;99.90;;;;;;4945304;29;20079;-87
2021/07/13 06:17:33;;;;;;;89.20;37.70;;;18.20;99.90;;;;;;4928932;29;20035;-86
2021/07/13 06:19:58;;;;;;;144.73;45.15;;;18.30;99.90;;;;;;4946992;28;20043;-87
2021/07/13 06:22:24;;;;;;;126.88;43.60;;;18.30;99.90;;;;;;4932701;29;20024;-87
2021/07/13 06:24:49;;;;;;;145.63;45.03;;;18.30;99.90;;;;;;4932720;29;20036;-87
2021/07/13 06:27:15;;;;;;;145.77;46.20;;;18.30;99.90;;;;;;4933156;29;20035;-86
2021/07/13 06:29:41;;;;;;;148.07;45.30;;;18.30;99.90;;;;;;4933158;29;20058;-88
2021/07/13 06:32:06;;;;;;;123.70;44.28;;;18.30;99.90;;;;;;4933076;29;20035;-87
2021/07/13 06:34:33;;;;;;;150.77;49.85;;;18.30;99.90;;;;;;4935917;29;20083;-88
2021/07/13 06:36:58;;;;;;;191.98;57.10;;;18.30;99.90;;;;;;4933502;29;20505;-86
2021/07/13 06:39:24;;;;;;;195.63;56.90;;;18.30;99.90;;;;;;4949104;29;20107;-87
2021/07/13 06:41:49;;;;;;;185.75;56.05;;;18.40;99.90;;;;;;4948627;29;20032;-87
2021/07/13 06:44:15;;;;;;;114.40;42.10;;;18.40;99.90;;;;;;4932694;29;20032;-87
2021/07/13 06:46:40;;;;;;;157.73;50.75;;;18.40;99.90;;;;;;4949100;29;20048;-87
2021/07/13 06:49:06;;;;;;;145.25;51.10;;;18.40;99.90;;;;;;4948734;29;20027;-89
2021/07/13 06:51:31;;;;;;;154.45;52.08;;;18.40;99.90;;;;;;4932364;29;20042;-87
2021/07/13 06:53:57;;;;;;;168.00;52.78;;;18.40;99.90;;;;;;4948320;29;20066;-87
2021/07/13 06:56:22;;;;;;;185.93;52.75;;;18.40;99.90;;;;;;4948515;29;20772;-88
2021/07/13 06:58:48;;;;;;;147.63;50.22;;;18.40;99.90;;;;;;4931875;29;20656;-88
2021/07/13 07:01:13;;;;;;;148.05;49.85;;;18.40;99.90;;;;;;4949913;29;20051;-87
2021/07/13 07:03:39;;;;;;;205.90;55.58;;;18.40;99.90;;;;;;4935035;29;20039;-87
2021/07/13 07:06:04;;;;;;;157.45;50.53;;;18.50;99.90;;;;;;4933961;29;20031;-87
2021/07/13 07:08:30;;;;;;;133.68;46.40;;;18.50;99.90;;;;;;4947927;29;20039;-88
2021/07/13 07:10:55;;;;;;;106.55;39.25;;;18.50;99.90;;;;;;4932218;29;20629;-87
2021/07/13 07:13:21;;;;;;;113.35;41.60;;;18.50;99.90;;;;;;4931927;29;20488;-87
2021/07/13 07:15:46;;;;;;;103.55;37.67;;;18.50;99.90;;;;;;4932241;29;20098;-86
2021/07/13 07:18:12;;;;;;;105.15;39.95;;;18.50;99.90;;;;;;4931619;29;20475;-87
2021/07/13 07:20:37;;;;;;;92.18;36.63;;;18.50;99.90;;;;;;4932143;29;20107;-87
2021/07/13 07:23:03;;;;;;;80.80;34.17;;;18.50;99.90;;;;;;4931775;29;20028;-88
2021/07/13 07:25:30;;;;;;;109.30;36.75;;;18.50;99.90;;;;;;4947999;29;20485;-89
2021/07/13 07:27:56;;;;;;;77.50;33.72;;;18.50;99.90;;;;;;4931341;29;20847;-88
2021/07/13 07:30:22;;;;;;;89.63;33.10;;;18.50;99.90;;;;;;4947265;29;20032;-87
2021/07/13 07:32:48;;;;;;;92.97;36.17;;;18.50;99.90;;;;;;4931651;29;20372;-86
2021/07/13 07:35:13;;;;;;;126.63;41.65;;;18.50;99.90;;;;;;4931569;29;20053;-89
2021/07/13 07:37:39;;;;;;;78.70;33.22;;;18.50;99.90;;;;;;4934874;29;20032;-90
2021/07/13 07:40:05;;;;;;;78.07;34.83;;;18.50;99.90;;;;;;4932026;29;20589;-86
2021/07/13 07:42:32;;;;;;;64.13;33.30;;;18.50;99.90;;;;;;4932801;29;20088;-89
2021/07/13 07:44:58;;;;;;;79.03;34.35;;;18.50;99.90;;;;;;4934315;29;20082;-87
2021/07/13 07:47:23;;;;;;;109.05;39.10;;;18.50;99.90;;;;;;4931297;29;20195;-88
2021/07/13 07:49:49;;;;;;;73.97;35.63;;;18.60;99.90;;;;;;4931114;29;20036;-88
2021/07/13 07:52:14;;;;;;;95.30;37.03;;;18.60;99.90;;;;;;4949632;29;20031;-89
2021/07/13 07:54:40;;;;;;;89.43;33.80;;;18.60;99.90;;;;;;4933537;29;20028;-88
2021/07/13 07:57:05;;;;;;;90.80;37.10;;;18.60;99.90;;;;;;4947453;29;20038;-88
2021/07/13 07:59:31;;;;;;;87.55;34.58;;;18.60;99.90;;;;;;4931833;29;20039;-88
2021/07/13 08:01:56;;;;;;;86.35;35.35;;;18.70;99.90;;;;;;4931135;29;20059;-89
2021/07/13 08:04:22;;;;;;;109.70;37.75;;;18.60;99.90;;;;;;4947008;29;20031;-89
2021/07/13 08:06:47;;;;;;;155.52;44.33;;;18.60;99.90;;;;;;4931429;29;20084;-87
2021/07/13 08:09:13;;;;;;;134.35;42.85;;;18.60;99.90;;;;;;4931826;29;20114;-89
2021/07/13 08:11:38;;;;;;;77.00;37.75;;;18.70;99.90;;;;;;4930831;29;20163;-87
2021/07/13 08:14:05;;;;;;;96.72;37.75;;;18.70;99.90;;;;;;4930894;29;20078;-88
2021/07/13 08:16:35;;;;;;;150.23;44.42;;;18.70;99.90;;;;;;4933175;29;20027;-88
2021/07/13 08:19:01;;;;;;;122.50;43.40;;;18.70;99.90;;;;;;4933864;29;20073;-89
2021/07/13 08:21:26;;;;;;;140.00;45.05;;;18.70;99.90;;;;;;4932647;29;20516;-88
2021/07/13 08:23:52;;;;;;;129.90;46.05;;;18.70;99.90;;;;;;4947860;29;20412;-91
2021/07/13 08:26:18;;;;;;;129.38;51.47;;;18.70;99.90;;;;;;4930132;29;20042;-88
2021/07/13 08:28:43;;;;;;;227.73;65.03;;;18.70;99.90;;;;;;4930680;29;20042;-87
2021/07/13 08:31:09;;;;;;;217.95;66.38;;;18.80;99.90;;;;;;4931252;29;20036;-86
2021/07/13 08:33:34;;;;;;;250.20;67.68;;;18.80;99.90;;;;;;4931244;29;20035;-87
2021/07/13 08:36:00;;;;;;;241.93;67.40;;;18.80;99.90;;;;;;4931205;29;20047;-88
2021/07/13 08:38:25;;;;;;;160.80;58.28;;;18.80;99.90;;;;;;4946026;29;20035;-88
2021/07/13 08:40:51;;;;;;;354.77;81.32;;;18.90;99.90;;;;;;4930939;29;20031;-87
2021/07/13 08:43:16;;;;;;;252.75;72.82;;;18.90;99.90;;;;;;4947330;28;20066;-87
2021/07/13 08:45:42;;;;;;;336.55;82.03;;;18.90;99.90;;;;;;4947218;29;20036;-88
2021/07/13 08:48:12;;;;;;;264.40;73.97;;;18.90;99.90;;;;;;4930410;29;20056;-89
2021/07/13 08:50:38;;;;;;;228.63;71.43;;;18.80;99.90;;;;;;4948884;29;20499;-88
2021/07/13 09:00:56;;;;;;;427.38;102.28;;;18.90;99.90;;;;;;4952872;29;20063;-89
2021/07/13 09:03:22;;;;;;;377.55;93.65;;;18.90;99.90;;;;;;4937759;28;20027;-89
2021/07/13 09:05:52;;;;;;;341.20;92.30;;;19.00;99.90;;;;;;4938163;28;20098;-88
2021/07/13 09:08:27;;;;;;;435.23;104.15;;;18.90;99.90;;;;;;4938102;29;20027;-89
2021/07/13 09:11:13;;;;;;;459.88;98.43;;;18.90;99.90;;;;;;4953908;28;20030;-89
2021/07/13 09:13:43;;;;;;;328.65;93.53;;;18.90;99.90;;;;;;4939170;28;20027;-90
2021/07/13 09:16:13;;;;;;;377.45;92.30;;;18.90;99.90;;;;;;4937662;28;20081;-88
2021/07/13 09:18:41;;;;;;;408.63;95.95;;;18.90;99.90;;;;;;4937480;29;20027;-88
2021/07/13 09:21:07;;;;;;;216.30;78.85;;;19.00;99.90;;;;;;4937730;28;20382;-90
2021/07/13 09:23:32;;;;;;;430.27;101.97;;;19.00;99.90;;;;;;4953176;28;20061;-89
2021/07/13 09:25:58;;;;;;;396.92;96.45;;;19.00;99.90;;;;;;4937326;29;20401;-89
2021/07/13 09:28:24;;;;;;;416.13;101.18;;;19.00;99.90;;;;;;4937399;28;20639;-89
2021/07/13 09:30:57;;;;;;;311.85;87.95;;;19.00;99.90;;;;;;4937066;29;20031;-90
2021/07/13 09:33:27;;;;;;;449.13;103.10;;;19.00;99.90;;;;;;4936390;28;20087;-88
2021/07/13 09:36:12;;;;;;;425.80;101.13;;;19.10;99.90;;;;;;4936618;29;20086;-88
2021/07/13 09:38:44;;;;;;;436.88;96.20;;;19.10;99.90;;;;;;4937267;28;20020;-88
2021/07/13 09:41:17;;;;;;;366.65;94.18;;;19.10;99.90;;;;;;4952516;28;20045;-88
2021/07/13 09:43:50;;;;;;;404.85;101.30;;;19.10;99.90;;;;;;4935822;29;20035;-87
2021/07/13 09:46:46;;;;;;;338.17;90.90;;;19.10;99.90;;;;;;4951260;28;20027;-88
2021/07/13 09:49:19;;;;;;;443.00;99.80;;;19.10;99.90;;;;;;4938164;29;20031;-88
2021/07/13 09:51:56;;;;;;;295.13;83.75;;;19.20;99.90;;;;;;4952169;28;20238;-88
2021/07/13 09:54:37;;;;;;;464.75;103.18;;;19.20;99.90;;;;;;4935836;29;20094;-88
2021/07/13 09:57:05;;;;;;;418.40;99.38;;;19.20;99.90;;;;;;4951494;29;20785;-89
2021/07/13 09:59:30;;;;;;;505.38;105.43;;;19.20;99.90;;;;;;4935096;29;20039;-88
2021/07/13 10:01:56;;;;;;;433.73;104.05;;;19.20;99.90;;;;;;4935268;29;20103;-87
2021/07/13 10:04:22;;;;;;;453.38;106.85;;;19.20;99.90;;;;;;4935107;29;20788;-88
2021/07/13 10:06:49;;;;;;;475.40;110.60;;;19.20;99.90;;;;;;4934564;29;20053;-89
2021/07/13 10:09:15;;;;;;;468.00;107.78;;;19.30;99.90;;;;;;4935179;29;20030;-89
2021/07/13 10:11:41;;;;;;;453.70;111.78;;;19.30;99.90;;;;;;4935277;29;20762;-89
2021/07/13 10:14:07;;;;;;;503.60;118.10;;;19.30;99.90;;;;;;4936104;29;20074;-90
2021/07/13 10:16:33;;;;;;;456.10;110.20;;;19.30;99.90;;;;;;4937374;29;20519;-90
2021/07/13 10:19:03;;;;;;;483.52;113.20;;;19.40;99.90;;;;;;4938156;28;20039;-89
2021/07/13 10:21:29;;;;;;;496.13;117.95;;;19.50;99.90;;;;;;4937863;28;20086;-89
2021/07/13 10:23:55;;;;;;;625.13;126.25;;;19.40;99.90;;;;;;4938294;28;20031;-89
2021/07/13 10:26:45;;;;;;;369.50;107.55;;;19.50;99.90;;;;;;4938800;28;20114;-90
2021/07/13 10:29:30;;;;;;;430.05;110.88;;;19.50;99.90;;;;;;4953838;29;20513;-89
2021/07/13 10:31:55;;;;;;;528.70;123.40;;;19.60;99.90;;;;;;4953931;29;20031;-90
2021/07/13 10:34:47;;;;;;;627.70;135.35;;;19.60;99.90;;;;;;4937901;29;20062;-90
2021/07/13 10:37:34;;;;;;;590.22;123.53;;;19.60;99.90;;;;;;4953045;28;20031;-90
2021/07/13 10:40:11;;;;;;;451.77;112.53;;;19.70;99.90;;;;;;4952484;29;20027;-90
2021/07/13 10:42:44;;;;;;;493.77;118.65;;;19.70;99.90;;;;;;4937179;29;20118;-90
2021/07/13 10:45:24;;;;;;;339.98;109.90;;;19.70;99.90;;;;;;4950438;28;20046;-89
2021/07/13 10:48:09;;;;;;;441.77;120.05;;;19.80;99.90;;;;;;4951149;28;20055;-89
2021/07/13 10:50:35;;;;;;;492.52;115.20;;;19.80;99.90;;;;;;4949227;29;20035;-90
2021/07/13 10:53:02;;;;;;;454.50;121.97;;;19.80;99.90;;;;;;4941999;29;20119;-90
2021/07/13 10:55:31;;;;;;;516.70;123.18;;;19.90;99.90;;;;;;4913738;29;20395;-89
2021/07/13 10:58:11;;;;;;;434.88;118.20;;;19.90;99.90;;;;;;4929539;29;20055;-88
2021/07/13 11:01:03;;;;;;;436.13;111.15;;;19.90;99.90;;;;;;4929535;29;20040;-90
2021/07/13 11:03:32;;;;;;;484.67;106.75;;;19.90;99.90;;;;;;4939409;29;20493;-88
2021/07/13 11:06:04;;;;;;;450.48;113.43;;;20.00;99.90;;;;;;4966965;28;20027;-89
2021/07/13 11:08:46;;;;;;;449.90;108.60;;;20.00;99.90;;;;;;4938110;29;20036;-90
2021/07/13 11:11:38;;;;;;;492.70;113.22;;;20.00;99.90;;;;;;4970438;28;20386;-89
2021/07/13 11:14:05;;;;;;;380.35;108.57;;;20.10;99.90;;;;;;4937487;29;20037;-88
2021/07/13 11:16:38;;;;;;;461.55;108.28;;;20.10;99.90;;;;;;4921724;29;20613;-88
2021/07/13 11:19:12;;;;;;;373.77;101.47;;;20.10;99.90;;;;;;4937433;28;20035;-88
2021/07/13 11:21:40;;;;;;;393.67;105.63;;;20.10;99.90;;;;;;4922507;29;20053;-88
2021/07/13 11:24:06;;;;;;;349.92;103.78;;;20.10;99.90;;;;;;4937241;28;20029;-88
2021/07/13 11:26:33;;;;;;;402.00;106.63;;;20.00;99.90;;;;;;4968952;28;20808;-88
2021/07/13 11:29:03;;;;;;;414.10;107.72;;;20.00;99.90;;;;;;4936819;28;20023;-87
2021/07/13 11:31:30;;;;;;;387.30;101.07;;;20.00;99.90;;;;;;4937374;29;20479;-88
2021/07/13 11:34:04;;;;;;;462.95;106.32;;;20.10;99.90;;;;;;4936607;29;20089;-88
2021/07/13 11:36:34;;;;;;;429.35;103.13;;;20.00;99.90;;;;;;4968482;28;20118;-88
2021/07/13 11:39:02;;;;;;;252.13;89.60;;;20.00;99.90;;;;;;4935346;29;20090;-88
2021/07/13 11:41:28;;;;;;;383.08;100.90;;;20.00;99.90;;;;;;4936455;28;20046;-89
2021/07/13 11:43:58;;;;;;;349.50;92.22;;;20.10;99.90;;;;;;4935992;29;20388;-88
2021/07/13 11:46:27;;;;;;;412.75;103.00;;;20.00;99.90;;;;;;4936685;29;20027;-88
2021/07/13 11:48:57;;;;;;;388.83;98.25;;;20.00;99.90;;;;;;4936171;29;20027;-89
2021/07/13 11:51:34;;;;;;;342.73;91.78;;;20.10;99.90;;;;;;4934944;29;20019;-87
2021/07/13 11:54:06;;;;;;;347.90;88.93;;;20.10;99.90;;;;;;4933930;28;20031;-89
2021/07/13 11:56:32;;;;;;;312.23;87.95;;;20.10;99.90;;;;;;4934490;29;20410;-87
2021/07/13 11:58:58;;;;;;;429.83;96.38;;;20.10;99.90;;;;;;4933846;29;20035;-88
2021/07/13 12:01:26;;;;;;;320.13;88.50;;;20.20;99.90;;;;;;4934101;29;20027;-88
2021/07/13 12:03:54;;;;;;;317.98;88.10;;;20.10;99.90;;;;;;4934322;28;20614;-87
2021/07/13 12:06:23;;;;;;;420.08;96.72;;;20.10;99.90;;;;;;4935964;28;20027;-88
2021/07/13 12:08:54;;;;;;;339.67;91.07;;;20.10;99.90;;;;;;4919286;29;20083;-88
2021/07/13 12:11:23;;;;;;;360.45;91.07;;;20.10;99.90;;;;;;4935643;28;20031;-88
2021/07/13 12:13:49;;;;;;;388.85;93.35;;;20.10;99.90;;;;;;4951437;28;20037;-88
2021/07/13 12:16:22;;;;;;;361.80;94.95;;;20.10;99.90;;;;;;4950947;29;20142;-87
2021/07/13 12:18:49;;;;;;;379.10;99.28;;;20.10;99.90;;;;;;4950398;28;20063;-87
2021/07/13 12:21:15;;;;;;;407.48;93.20;;;20.10;99.90;;;;;;4950248;29;20038;-87
2021/07/13 12:23:44;;;;;;;332.17;90.05;;;20.10;99.90;;;;;;4950338;28;20023;-87
2021/07/13 12:26:23;;;;;;;356.98;90.68;;;20.10;99.90;;;;;;4950385;29;20487;-87
2021/07/13 12:29:06;;;;;;;356.88;93.32;;;20.10;99.90;;;;;;4949785;29;20059;-87
2021/07/13 12:31:33;;;;;;;309.05;85.43;;;20.20;99.90;;;;;;4950424;29;20031;-87